sensor_id;sensor_type;location;lat;lon;timestamp;P1;durP1;ratioP1;P2;durP2;ratioP2
12840;SDS011;6487;48.626;12.486;2023-02-24T00:01:54;17.47;;;14.67;;
12840;SDS011;6487;48.626;12.486;2023-02-24T00:04:27;16.33;;;14.63;;
12840;SDS011;6487;48.626;12.486;2023-02-24T00:06:58;16.70;;;14.37;;
12840;SDS011;6487;48.626;12.486;2023-02-24T00:09:27;18.37;;;16.37;;
12840;SDS011;6487;48.626;12.486;2023-02-24T00:11:59;19.03;;;16.87;;
12840;SDS011;6487;48.626;12.486;2023-02-24T00:14:36;18.60;;;15.63;;
12840;SDS011;6487;48.626;12.486;2023-02-24T00:17:08;18.63;;;15.47;;
12840;SDS011;6487;48.626;12.486;2023-02-24T00:19:39;17.33;;;15.37;;
12840;SDS011;6487;48.626;12.486;2023-02-24T00:22:08;17.57;;;15.70;;
12840;SDS011;6487;48.626;12.486;2023-02-24T00:24:36;17.23;;;15.43;;
12840;SDS011;6487;48.626;12.486;2023-02-24T00:27:05;16.57;;;14.97;;
12840;SDS011;6487;48.626;12.486;2023-02-24T00:29:39;17.57;;;15.77;;
12840;SDS011;6487;48.626;12.486;2023-02-24T00:32:07;18.37;;;16.23;;
12840;SDS011;6487;48.626;12.486;2023-02-24T00:34:38;18.13;;;15.83;;
12840;SDS011;6487;48.626;12.486;2023-02-24T00:37:08;20.93;;;16.57;;
12840;SDS011;6487;48.626;12.486;2023-02-24T00:39:37;18.10;;;16.20;;
12840;SDS011;6487;48.626;12.486;2023-02-24T00:42:07;17.33;;;15.53;;
12840;SDS011;6487;48.626;12.486;2023-02-24T00:44:37;18.43;;;16.27;;
12840;SDS011;6487;48.626;12.486;2023-02-24T00:47:10;18.13;;;14.67;;
12840;SDS011;6487;48.626;12.486;2023-02-24T00:49:41;16.67;;;14.87;;
12840;SDS011;6487;48.626;12.486;2023-02-24T00:52:10;16.50;;;14.57;;
12840;SDS011;6487;48.626;12.486;2023-02-24T00:54:41;16.83;;;15.03;;
12840;SDS011;6487;48.626;12.486;2023-02-24T00:57:10;17.23;;;14.60;;
12840;SDS011;6487;48.626;12.486;2023-02-24T00:59:40;16.67;;;14.03;;
12840;SDS011;6487;48.626;12.486;2023-02-24T01:02:13;16.83;;;14.53;;
12840;SDS011;6487;48.626;12.486;2023-02-24T01:04:42;17.27;;;14.70;;
12840;SDS011;6487;48.626;12.486;2023-02-24T01:07:11;17.53;;;14.93;;
12840;SDS011;6487;48.626;12.486;2023-02-24T01:09:39;17.33;;;15.17;;
12840;SDS011;6487;48.626;12.486;2023-02-24T01:12:09;19.27;;;15.33;;
12840;SDS011;6487;48.626;12.486;2023-02-24T01:15:00;17.40;;;14.60;;
12840;SDS011;6487;48.626;12.486;2023-02-24T01:17:30;19.67;;;16.40;;
12840;SDS011;6487;48.626;12.486;2023-02-24T01:19:58;17.53;;;14.83;;
12840;SDS011;6487;48.626;12.486;2023-02-24T01:22:41;18.63;;;15.57;;
12840;SDS011;6487;48.626;12.486;2023-02-24T01:25:10;16.83;;;15.03;;
12840;SDS011;6487;48.626;12.486;2023-02-24T01:27:38;17.53;;;15.63;;
12840;SDS011;6487;48.626;12.486;2023-02-24T01:30:09;20.40;;;15.67;;
12840;SDS011;6487;48.626;12.486;2023-02-24T01:32:41;20.27;;;15.37;;
12840;SDS011;6487;48.626;12.486;2023-02-24T01:35:12;18.60;;;14.73;;
12840;SDS011;6487;48.626;12.486;2023-02-24T01:37:40;17.77;;;14.60;;
12840;SDS011;6487;48.626;12.486;2023-02-24T01:40:11;15.57;;;13.83;;
12840;SDS011;6487;48.626;12.486;2023-02-24T01:42:47;16.20;;;13.30;;
12840;SDS011;6487;48.626;12.486;2023-02-24T01:45:19;16.67;;;14.63;;
12840;SDS011;6487;48.626;12.486;2023-02-24T01:47:51;16.97;;;14.60;;
12840;SDS011;6487;48.626;12.486;2023-02-24T01:50:22;18.03;;;15.97;;
12840;SDS011;6487;48.626;12.486;2023-02-24T01:52:52;16.40;;;14.70;;
12840;SDS011;6487;48.626;12.486;2023-02-24T01:55:25;16.83;;;14.53;;
12840;SDS011;6487;48.626;12.486;2023-02-24T01:57:58;16.43;;;14.53;;
12840;SDS011;6487;48.626;12.486;2023-02-24T02:00:32;15.93;;;14.20;;
12840;SDS011;6487;48.626;12.486;2023-02-24T02:03:12;15.87;;;14.20;;
12840;SDS011;6487;48.626;12.486;2023-02-24T02:05:49;15.60;;;14.00;;
12840;SDS011;6487;48.626;12.486;2023-02-24T02:08:19;18.77;;;14.50;;
12840;SDS011;6487;48.626;12.486;2023-02-24T02:10:50;16.03;;;14.10;;
12840;SDS011;6487;48.626;12.486;2023-02-24T02:13:24;16.30;;;14.20;;
12840;SDS011;6487;48.626;12.486;2023-02-24T02:15:58;16.70;;;14.87;;
12840;SDS011;6487;48.626;12.486;2023-02-24T02:18:45;17.37;;;15.57;;
12840;SDS011;6487;48.626;12.486;2023-02-24T02:21:33;16.13;;;14.43;;
12840;SDS011;6487;48.626;12.486;2023-02-24T02:24:34;16.80;;;14.57;;
12840;SDS011;6487;48.626;12.486;2023-02-24T02:30:22;19.87;;;15.70;;
12840;SDS011;6487;48.626;12.486;2023-02-24T02:36:39;18.53;;;14.47;;
12840;SDS011;6487;48.626;12.486;2023-02-24T02:39:21;17.60;;;15.63;;
12840;SDS011;6487;48.626;12.486;2023-02-24T02:42:02;17.67;;;14.80;;
12840;SDS011;6487;48.626;12.486;2023-02-24T02:44:42;18.00;;;15.27;;
12840;SDS011;6487;48.626;12.486;2023-02-24T02:47:23;17.67;;;15.53;;
12840;SDS011;6487;48.626;12.486;2023-02-24T02:49:57;17.57;;;14.70;;
12840;SDS011;6487;48.626;12.486;2023-02-24T02:52:34;16.77;;;13.97;;
12840;SDS011;6487;48.626;12.486;2023-02-24T02:55:08;19.27;;;14.53;;
12840;SDS011;6487;48.626;12.486;2023-02-24T02:57:42;20.83;;;15.30;;
12840;SDS011;6487;48.626;12.486;2023-02-24T03:00:17;17.70;;;15.00;;
12840;SDS011;6487;48.626;12.486;2023-02-24T03:02:50;19.47;;;14.43;;
12840;SDS011;6487;48.626;12.486;2023-02-24T03:05:27;16.73;;;13.97;;
12840;SDS011;6487;48.626;12.486;2023-02-24T03:07:59;19.47;;;16.20;;
12840;SDS011;6487;48.626;12.486;2023-02-24T03:10:31;20.37;;;15.17;;
12840;SDS011;6487;48.626;12.486;2023-02-24T03:13:00;17.80;;;14.87;;
12840;SDS011;6487;48.626;12.486;2023-02-24T03:15:31;21.10;;;15.00;;
12840;SDS011;6487;48.626;12.486;2023-02-24T03:18:00;17.83;;;14.30;;
12840;SDS011;6487;48.626;12.486;2023-02-24T03:20:38;18.77;;;15.27;;
12840;SDS011;6487;48.626;12.486;2023-02-24T03:23:12;16.87;;;14.93;;
12840;SDS011;6487;48.626;12.486;2023-02-24T03:25:47;18.23;;;16.27;;
12840;SDS011;6487;48.626;12.486;2023-02-24T03:28:25;17.63;;;15.30;;
12840;SDS011;6487;48.626;12.486;2023-02-24T03:31:01;19.60;;;15.30;;
12840;SDS011;6487;48.626;12.486;2023-02-24T03:33:37;17.83;;;15.97;;
12840;SDS011;6487;48.626;12.486;2023-02-24T03:36:11;18.67;;;15.77;;
12840;SDS011;6487;48.626;12.486;2023-02-24T03:38:40;17.43;;;15.63;;
12840;SDS011;6487;48.626;12.486;2023-02-24T03:41:09;18.73;;;16.73;;
12840;SDS011;6487;48.626;12.486;2023-02-24T03:43:39;22.27;;;16.00;;
12840;SDS011;6487;48.626;12.486;2023-02-24T03:46:11;17.93;;;15.97;;
12840;SDS011;6487;48.626;12.486;2023-02-24T03:48:43;18.20;;;16.33;;
12840;SDS011;6487;48.626;12.486;2023-02-24T03:51:19;20.70;;;16.93;;
12840;SDS011;6487;48.626;12.486;2023-02-24T03:53:54;18.37;;;16.40;;
12840;SDS011;6487;48.626;12.486;2023-02-24T03:56:37;19.40;;;16.57;;
12840;SDS011;6487;48.626;12.486;2023-02-24T03:59:17;18.13;;;15.17;;
12840;SDS011;6487;48.626;12.486;2023-02-24T04:01:59;18.10;;;16.20;;
12840;SDS011;6487;48.626;12.486;2023-02-24T04:04:33;16.93;;;15.20;;
12840;SDS011;6487;48.626;12.486;2023-02-24T04:07:10;18.13;;;15.50;;
12840;SDS011;6487;48.626;12.486;2023-02-24T04:09:42;19.90;;;15.77;;
12840;SDS011;6487;48.626;12.486;2023-02-24T04:12:17;18.73;;;16.73;;
12840;SDS011;6487;48.626;12.486;2023-02-24T04:14:53;20.27;;;17.37;;
12840;SDS011;6487;48.626;12.486;2023-02-24T04:17:31;18.67;;;16.27;;
12840;SDS011;6487;48.626;12.486;2023-02-24T04:20:05;21.20;;;16.20;;
12840;SDS011;6487;48.626;12.486;2023-02-24T04:22:42;18.57;;;15.97;;
12840;SDS011;6487;48.626;12.486;2023-02-24T04:25:15;19.83;;;16.30;;
12840;SDS011;6487;48.626;12.486;2023-02-24T04:27:45;19.67;;;17.57;;
12840;SDS011;6487;48.626;12.486;2023-02-24T04:30:15;19.87;;;16.43;;
12840;SDS011;6487;48.626;12.486;2023-02-24T04:32:43;21.30;;;16.30;;
12840;SDS011;6487;48.626;12.486;2023-02-24T04:35:12;20.80;;;15.63;;
12840;SDS011;6487;48.626;12.486;2023-02-24T04:37:44;17.13;;;14.97;;
12840;SDS011;6487;48.626;12.486;2023-02-24T04:40:14;17.60;;;15.33;;
12840;SDS011;6487;48.626;12.486;2023-02-24T04:42:47;19.20;;;15.93;;
12840;SDS011;6487;48.626;12.486;2023-02-24T04:45:18;16.33;;;14.63;;
12840;SDS011;6487;48.626;12.486;2023-02-24T04:47:49;18.50;;;15.93;;
12840;SDS011;6487;48.626;12.486;2023-02-24T04:50:22;20.60;;;16.73;;
12840;SDS011;6487;48.626;12.486;2023-02-24T04:52:54;17.20;;;15.40;;
12840;SDS011;6487;48.626;12.486;2023-02-24T04:55:26;16.87;;;14.70;;
12840;SDS011;6487;48.626;12.486;2023-02-24T04:57:58;18.10;;;15.43;;
12840;SDS011;6487;48.626;12.486;2023-02-24T05:00:28;17.27;;;14.33;;
12840;SDS011;6487;48.626;12.486;2023-02-24T05:03:01;16.30;;;14.60;;
12840;SDS011;6487;48.626;12.486;2023-02-24T05:05:31;18.67;;;16.67;;
12840;SDS011;6487;48.626;12.486;2023-02-24T05:08:02;16.97;;;15.27;;
12840;SDS011;6487;48.626;12.486;2023-02-24T05:10:34;18.13;;;14.70;;
12840;SDS011;6487;48.626;12.486;2023-02-24T05:13:05;19.27;;;15.40;;
12840;SDS011;6487;48.626;12.486;2023-02-24T05:15:37;20.90;;;15.87;;
12840;SDS011;6487;48.626;12.486;2023-02-24T05:18:08;17.57;;;15.50;;
12840;SDS011;6487;48.626;12.486;2023-02-24T05:20:41;16.80;;;14.97;;
12840;SDS011;6487;48.626;12.486;2023-02-24T05:23:31;17.23;;;15.23;;
12840;SDS011;6487;48.626;12.486;2023-02-24T05:26:02;17.33;;;15.53;;
12840;SDS011;6487;48.626;12.486;2023-02-24T05:28:34;18.83;;;15.83;;
12840;SDS011;6487;48.626;12.486;2023-02-24T05:31:04;16.83;;;15.03;;
12840;SDS011;6487;48.626;12.486;2023-02-24T05:33:34;17.57;;;15.63;;
12840;SDS011;6487;48.626;12.486;2023-02-24T05:36:04;18.93;;;16.43;;
12840;SDS011;6487;48.626;12.486;2023-02-24T05:38:36;18.97;;;16.47;;
12840;SDS011;6487;48.626;12.486;2023-02-24T05:41:05;20.17;;;16.40;;
12840;SDS011;6487;48.626;12.486;2023-02-24T05:43:40;20.07;;;16.37;;
12840;SDS011;6487;48.626;12.486;2023-02-24T05:46:13;17.13;;;15.33;;
12840;SDS011;6487;48.626;12.486;2023-02-24T05:48:42;17.03;;;15.03;;
12840;SDS011;6487;48.626;12.486;2023-02-24T05:51:10;19.17;;;15.47;;
12840;SDS011;6487;48.626;12.486;2023-02-24T05:53:41;19.97;;;15.60;;
12840;SDS011;6487;48.626;12.486;2023-02-24T05:56:09;16.53;;;14.73;;
12840;SDS011;6487;48.626;12.486;2023-02-24T05:58:38;19.00;;;15.67;;
12840;SDS011;6487;48.626;12.486;2023-02-24T06:01:10;21.50;;;16.00;;
12840;SDS011;6487;48.626;12.486;2023-02-24T06:03:41;17.07;;;15.03;;
12840;SDS011;6487;48.626;12.486;2023-02-24T06:06:13;16.83;;;14.83;;
12840;SDS011;6487;48.626;12.486;2023-02-24T06:08:43;18.13;;;16.23;;
12840;SDS011;6487;48.626;12.486;2023-02-24T06:11:16;22.43;;;16.97;;
12840;SDS011;6487;48.626;12.486;2023-02-24T06:13:47;17.30;;;15.47;;
12840;SDS011;6487;48.626;12.486;2023-02-24T06:16:15;17.37;;;14.93;;
12840;SDS011;6487;48.626;12.486;2023-02-24T06:18:46;21.17;;;16.20;;
12840;SDS011;6487;48.626;12.486;2023-02-24T06:21:16;18.87;;;16.33;;
12840;SDS011;6487;48.626;12.486;2023-02-24T06:23:46;17.70;;;15.40;;
12840;SDS011;6487;48.626;12.486;2023-02-24T06:26:14;18.17;;;16.27;;
12840;SDS011;6487;48.626;12.486;2023-02-24T06:28:45;18.10;;;16.07;;
12840;SDS011;6487;48.626;12.486;2023-02-24T06:31:15;22.03;;;16.87;;
12840;SDS011;6487;48.626;12.486;2023-02-24T06:33:43;21.00;;;16.67;;
12840;SDS011;6487;48.626;12.486;2023-02-24T06:36:12;19.63;;;17.53;;
12840;SDS011;6487;48.626;12.486;2023-02-24T06:38:40;19.47;;;16.47;;
12840;SDS011;6487;48.626;12.486;2023-02-24T06:41:10;17.37;;;15.47;;
12840;SDS011;6487;48.626;12.486;2023-02-24T06:43:40;19.47;;;14.87;;
12840;SDS011;6487;48.626;12.486;2023-02-24T06:46:11;19.73;;;15.37;;
12840;SDS011;6487;48.626;12.486;2023-02-24T06:48:41;24.23;;;16.60;;
12840;SDS011;6487;48.626;12.486;2023-02-24T06:51:11;17.43;;;15.33;;
12840;SDS011;6487;48.626;12.486;2023-02-24T06:53:42;19.07;;;15.77;;
12840;SDS011;6487;48.626;12.486;2023-02-24T06:56:12;18.53;;;14.77;;
12840;SDS011;6487;48.626;12.486;2023-02-24T06:58:45;17.77;;;14.07;;
12840;SDS011;6487;48.626;12.486;2023-02-24T07:01:16;19.23;;;15.13;;
12840;SDS011;6487;48.626;12.486;2023-02-24T07:03:47;19.20;;;15.10;;
12840;SDS011;6487;48.626;12.486;2023-02-24T07:06:44;20.73;;;15.70;;
12840;SDS011;6487;48.626;12.486;2023-02-24T07:09:18;19.17;;;15.23;;
12840;SDS011;6487;48.626;12.486;2023-02-24T07:11:51;22.63;;;15.60;;
12840;SDS011;6487;48.626;12.486;2023-02-24T07:14:22;18.33;;;16.43;;
12840;SDS011;6487;48.626;12.486;2023-02-24T07:16:53;20.50;;;16.00;;
12840;SDS011;6487;48.626;12.486;2023-02-24T07:19:23;20.43;;;16.50;;
12840;SDS011;6487;48.626;12.486;2023-02-24T07:21:55;20.97;;;17.10;;
12840;SDS011;6487;48.626;12.486;2023-02-24T07:24:26;22.93;;;18.73;;
12840;SDS011;6487;48.626;12.486;2023-02-24T07:27:03;19.03;;;16.53;;
12840;SDS011;6487;48.626;12.486;2023-02-24T07:29:34;21.30;;;17.63;;
12840;SDS011;6487;48.626;12.486;2023-02-24T07:32:05;22.23;;;19.83;;
12840;SDS011;6487;48.626;12.486;2023-02-24T07:34:35;20.90;;;17.73;;
12840;SDS011;6487;48.626;12.486;2023-02-24T07:37:06;22.00;;;18.07;;
12840;SDS011;6487;48.626;12.486;2023-02-24T07:39:35;22.20;;;17.57;;
12840;SDS011;6487;48.626;12.486;2023-02-24T07:42:07;20.73;;;17.10;;
12840;SDS011;6487;48.626;12.486;2023-02-24T07:44:38;21.27;;;16.70;;
12840;SDS011;6487;48.626;12.486;2023-02-24T07:47:09;20.30;;;16.60;;
12840;SDS011;6487;48.626;12.486;2023-02-24T07:49:38;19.90;;;15.53;;
12840;SDS011;6487;48.626;12.486;2023-02-24T07:52:06;18.90;;;15.87;;
12840;SDS011;6487;48.626;12.486;2023-02-24T07:54:36;20.57;;;16.33;;
12840;SDS011;6487;48.626;12.486;2023-02-24T07:57:06;20.90;;;15.90;;
12840;SDS011;6487;48.626;12.486;2023-02-24T07:59:39;19.60;;;15.73;;
12840;SDS011;6487;48.626;12.486;2023-02-24T08:02:12;21.10;;;17.00;;
12840;SDS011;6487;48.626;12.486;2023-02-24T08:04:41;20.03;;;16.40;;
12840;SDS011;6487;48.626;12.486;2023-02-24T08:07:15;21.30;;;17.00;;
12840;SDS011;6487;48.626;12.486;2023-02-24T08:09:50;19.87;;;17.10;;
12840;SDS011;6487;48.626;12.486;2023-02-24T08:12:51;23.87;;;18.07;;
12840;SDS011;6487;48.626;12.486;2023-02-24T08:15:22;22.23;;;18.07;;
12840;SDS011;6487;48.626;12.486;2023-02-24T08:17:59;22.60;;;18.83;;
12840;SDS011;6487;48.626;12.486;2023-02-24T08:20:29;21.77;;;17.53;;
12840;SDS011;6487;48.626;12.486;2023-02-24T08:23:16;24.50;;;19.37;;
12840;SDS011;6487;48.626;12.486;2023-02-24T08:25:45;22.27;;;19.27;;
12840;SDS011;6487;48.626;12.486;2023-02-24T08:28:14;22.57;;;19.17;;
12840;SDS011;6487;48.626;12.486;2023-02-24T08:30:43;23.40;;;17.57;;
12840;SDS011;6487;48.626;12.486;2023-02-24T08:33:13;21.33;;;18.30;;
12840;SDS011;6487;48.626;12.486;2023-02-24T08:35:49;24.87;;;19.33;;
12840;SDS011;6487;48.626;12.486;2023-02-24T08:38:27;30.47;;;22.97;;
12840;SDS011;6487;48.626;12.486;2023-02-24T08:41:05;27.57;;;22.33;;
12840;SDS011;6487;48.626;12.486;2023-02-24T08:43:44;24.13;;;21.53;;
12840;SDS011;6487;48.626;12.486;2023-02-24T08:46:16;25.43;;;21.10;;
12840;SDS011;6487;48.626;12.486;2023-02-24T08:48:52;26.27;;;21.87;;
12840;SDS011;6487;48.626;12.486;2023-02-24T08:51:24;31.47;;;24.60;;
12840;SDS011;6487;48.626;12.486;2023-02-24T08:53:55;27.97;;;23.90;;
12840;SDS011;6487;48.626;12.486;2023-02-24T08:56:26;26.97;;;22.37;;
12840;SDS011;6487;48.626;12.486;2023-02-24T08:59:02;26.30;;;23.33;;
12840;SDS011;6487;48.626;12.486;2023-02-24T09:01:33;27.10;;;23.47;;
12840;SDS011;6487;48.626;12.486;2023-02-24T09:04:06;27.30;;;22.13;;
12840;SDS011;6487;48.626;12.486;2023-02-24T09:06:39;25.70;;;22.00;;
12840;SDS011;6487;48.626;12.486;2023-02-24T09:09:10;26.83;;;22.97;;
12840;SDS011;6487;48.626;12.486;2023-02-24T09:11:43;25.50;;;22.20;;
12840;SDS011;6487;48.626;12.486;2023-02-24T09:14:16;25.67;;;21.90;;
12840;SDS011;6487;48.626;12.486;2023-02-24T09:16:55;24.90;;;21.93;;
12840;SDS011;6487;48.626;12.486;2023-02-24T09:19:36;24.63;;;21.37;;
12840;SDS011;6487;48.626;12.486;2023-02-24T09:22:28;24.60;;;21.90;;
12840;SDS011;6487;48.626;12.486;2023-02-24T09:24:59;25.27;;;22.00;;
12840;SDS011;6487;48.626;12.486;2023-02-24T09:27:47;25.27;;;21.57;;
12840;SDS011;6487;48.626;12.486;2023-02-24T09:30:23;25.73;;;20.77;;
12840;SDS011;6487;48.626;12.486;2023-02-24T09:33:11;25.77;;;20.87;;
12840;SDS011;6487;48.626;12.486;2023-02-24T09:35:47;23.70;;;20.73;;
12840;SDS011;6487;48.626;12.486;2023-02-24T09:38:35;26.30;;;21.90;;
12840;SDS011;6487;48.626;12.486;2023-02-24T09:41:23;23.67;;;21.17;;
12840;SDS011;6487;48.626;12.486;2023-02-24T09:43:59;26.80;;;21.80;;
12840;SDS011;6487;48.626;12.486;2023-02-24T09:46:40;25.90;;;22.83;;
12840;SDS011;6487;48.626;12.486;2023-02-24T09:49:19;26.10;;;21.70;;
12840;SDS011;6487;48.626;12.486;2023-02-24T09:51:52;24.40;;;21.80;;
12840;SDS011;6487;48.626;12.486;2023-02-24T09:54:28;28.97;;;23.67;;
12840;SDS011;6487;48.626;12.486;2023-02-24T09:57:01;26.03;;;22.87;;
12840;SDS011;6487;48.626;12.486;2023-02-24T09:59:45;30.33;;;25.37;;
12840;SDS011;6487;48.626;12.486;2023-02-24T10:02:49;29.57;;;23.10;;
12840;SDS011;6487;48.626;12.486;2023-02-24T10:05:26;24.40;;;21.30;;
12840;SDS011;6487;48.626;12.486;2023-02-24T10:08:03;25.43;;;22.50;;
12840;SDS011;6487;48.626;12.486;2023-02-24T10:10:43;25.40;;;22.13;;
12840;SDS011;6487;48.626;12.486;2023-02-24T10:13:26;25.90;;;22.87;;
12840;SDS011;6487;48.626;12.486;2023-02-24T10:15:58;25.33;;;21.83;;
12840;SDS011;6487;48.626;12.486;2023-02-24T10:18:38;25.37;;;22.13;;
12840;SDS011;6487;48.626;12.486;2023-02-24T10:21:16;25.40;;;21.13;;
12840;SDS011;6487;48.626;12.486;2023-02-24T10:24:07;24.30;;;20.70;;
12840;SDS011;6487;48.626;12.486;2023-02-24T10:26:42;24.40;;;21.67;;
12840;SDS011;6487;48.626;12.486;2023-02-24T10:29:30;24.97;;;21.47;;
12840;SDS011;6487;48.626;12.486;2023-02-24T10:32:16;25.10;;;21.67;;
12840;SDS011;6487;48.626;12.486;2023-02-24T10:34:50;23.37;;;20.90;;
12840;SDS011;6487;48.626;12.486;2023-02-24T10:37:20;28.90;;;22.20;;
12840;SDS011;6487;48.626;12.486;2023-02-24T10:39:55;23.70;;;20.60;;
12840;SDS011;6487;48.626;12.486;2023-02-24T10:42:35;25.60;;;22.53;;
12840;SDS011;6487;48.626;12.486;2023-02-24T10:45:12;28.77;;;24.20;;
12840;SDS011;6487;48.626;12.486;2023-02-24T10:47:48;26.07;;;22.40;;
12840;SDS011;6487;48.626;12.486;2023-02-24T10:50:26;27.33;;;22.63;;
12840;SDS011;6487;48.626;12.486;2023-02-24T10:53:00;29.30;;;22.60;;
12840;SDS011;6487;48.626;12.486;2023-02-24T10:55:51;23.47;;;20.33;;
12840;SDS011;6487;48.626;12.486;2023-02-24T10:58:40;25.37;;;22.43;;
12840;SDS011;6487;48.626;12.486;2023-02-24T11:01:24;28.43;;;22.93;;
12840;SDS011;6487;48.626;12.486;2023-02-24T11:04:10;26.50;;;22.57;;
12840;SDS011;6487;48.626;12.486;2023-02-24T11:07:11;25.23;;;20.90;;
12840;SDS011;6487;48.626;12.486;2023-02-24T11:10:01;25.77;;;21.37;;
12840;SDS011;6487;48.626;12.486;2023-02-24T11:12:41;24.60;;;20.27;;
12840;SDS011;6487;48.626;12.486;2023-02-24T11:15:35;24.07;;;21.63;;
12840;SDS011;6487;48.626;12.486;2023-02-24T11:18:26;26.10;;;21.33;;
12840;SDS011;6487;48.626;12.486;2023-02-24T11:20:57;22.73;;;20.20;;
12840;SDS011;6487;48.626;12.486;2023-02-24T11:23:29;23.50;;;20.57;;
12840;SDS011;6487;48.626;12.486;2023-02-24T11:26:05;26.27;;;20.77;;
12840;SDS011;6487;48.626;12.486;2023-02-24T11:28:49;22.93;;;20.40;;
12840;SDS011;6487;48.626;12.486;2023-02-24T11:31:30;23.80;;;20.23;;
12840;SDS011;6487;48.626;12.486;2023-02-24T11:34:14;25.80;;;19.47;;
12840;SDS011;6487;48.626;12.486;2023-02-24T11:36:51;23.23;;;20.20;;
12840;SDS011;6487;48.626;12.486;2023-02-24T11:39:37;28.40;;;22.27;;
12840;SDS011;6487;48.626;12.486;2023-02-24T11:42:20;28.03;;;21.13;;
12840;SDS011;6487;48.626;12.486;2023-02-24T11:44:55;24.80;;;21.27;;
12840;SDS011;6487;48.626;12.486;2023-02-24T11:47:32;27.63;;;21.03;;
12840;SDS011;6487;48.626;12.486;2023-02-24T11:50:18;23.47;;;20.60;;
12840;SDS011;6487;48.626;12.486;2023-02-24T11:52:57;23.13;;;20.70;;
12840;SDS011;6487;48.626;12.486;2023-02-24T11:55:34;25.97;;;19.93;;
12840;SDS011;6487;48.626;12.486;2023-02-24T11:58:11;25.37;;;19.77;;
12840;SDS011;6487;48.626;12.486;2023-02-24T12:00:49;25.07;;;21.13;;
12840;SDS011;6487;48.626;12.486;2023-02-24T12:03:26;23.40;;;20.10;;
12840;SDS011;6487;48.626;12.486;2023-02-24T12:06:04;23.77;;;20.33;;
12840;SDS011;6487;48.626;12.486;2023-02-24T12:08:42;36.57;;;26.90;;
12840;SDS011;6487;48.626;12.486;2023-02-24T12:11:18;34.37;;;24.97;;
12840;SDS011;6487;48.626;12.486;2023-02-24T12:13:59;32.00;;;24.37;;
12840;SDS011;6487;48.626;12.486;2023-02-24T12:16:40;28.27;;;20.30;;
12840;SDS011;6487;48.626;12.486;2023-02-24T12:19:14;23.43;;;20.63;;
12840;SDS011;6487;48.626;12.486;2023-02-24T12:21:47;22.77;;;19.30;;
12840;SDS011;6487;48.626;12.486;2023-02-24T12:24:19;22.33;;;19.03;;
12840;SDS011;6487;48.626;12.486;2023-02-24T12:26:52;27.60;;;21.07;;
12840;SDS011;6487;48.626;12.486;2023-02-24T12:29:36;24.40;;;20.70;;
12840;SDS011;6487;48.626;12.486;2023-02-24T12:32:19;24.23;;;19.30;;
12840;SDS011;6487;48.626;12.486;2023-02-24T12:35:00;23.73;;;18.33;;
12840;SDS011;6487;48.626;12.486;2023-02-24T12:37:41;24.63;;;19.07;;
12840;SDS011;6487;48.626;12.486;2023-02-24T12:40:26;22.17;;;18.97;;
12840;SDS011;6487;48.626;12.486;2023-02-24T12:43:09;24.47;;;18.87;;
12840;SDS011;6487;48.626;12.486;2023-02-24T12:45:50;24.50;;;18.83;;
12840;SDS011;6487;48.626;12.486;2023-02-24T12:48:31;22.70;;;18.57;;
12840;SDS011;6487;48.626;12.486;2023-02-24T12:51:25;23.90;;;18.83;;
12840;SDS011;6487;48.626;12.486;2023-02-24T12:54:01;27.37;;;20.13;;
12840;SDS011;6487;48.626;12.486;2023-02-24T12:56:37;23.33;;;19.27;;
12840;SDS011;6487;48.626;12.486;2023-02-24T12:59:17;26.80;;;19.37;;
12840;SDS011;6487;48.626;12.486;2023-02-24T13:01:50;26.07;;;19.67;;
12840;SDS011;6487;48.626;12.486;2023-02-24T13:04:33;25.70;;;19.03;;
12840;SDS011;6487;48.626;12.486;2023-02-24T13:07:08;22.87;;;17.17;;
12840;SDS011;6487;48.626;12.486;2023-02-24T13:09:56;23.90;;;17.37;;
12840;SDS011;6487;48.626;12.486;2023-02-24T13:12:39;23.37;;;17.40;;
12840;SDS011;6487;48.626;12.486;2023-02-24T13:15:18;20.30;;;17.07;;
12840;SDS011;6487;48.626;12.486;2023-02-24T13:17:48;22.50;;;16.47;;
12840;SDS011;6487;48.626;12.486;2023-02-24T13:20:26;18.60;;;16.60;;
12840;SDS011;6487;48.626;12.486;2023-02-24T13:22:58;21.10;;;17.20;;
12840;SDS011;6487;48.626;12.486;2023-02-24T13:25:29;24.53;;;18.93;;
12840;SDS011;6487;48.626;12.486;2023-02-24T13:28:01;24.63;;;17.47;;
12840;SDS011;6487;48.626;12.486;2023-02-24T13:30:34;22.80;;;16.87;;
12840;SDS011;6487;48.626;12.486;2023-02-24T13:33:22;19.50;;;16.57;;
12840;SDS011;6487;48.626;12.486;2023-02-24T13:36:09;23.53;;;18.20;;
12840;SDS011;6487;48.626;12.486;2023-02-24T13:38:42;21.37;;;17.30;;
12840;SDS011;6487;48.626;12.486;2023-02-24T13:41:32;22.97;;;17.60;;
12840;SDS011;6487;48.626;12.486;2023-02-24T13:44:25;20.07;;;15.83;;
12840;SDS011;6487;48.626;12.486;2023-02-24T13:47:09;23.27;;;17.33;;
12840;SDS011;6487;48.626;12.486;2023-02-24T13:50:05;23.47;;;17.17;;
12840;SDS011;6487;48.626;12.486;2023-02-24T13:52:50;18.90;;;16.27;;
12840;SDS011;6487;48.626;12.486;2023-02-24T13:55:48;17.77;;;15.77;;
12840;SDS011;6487;48.626;12.486;2023-02-24T13:58:37;20.97;;;16.03;;
12840;SDS011;6487;48.626;12.486;2023-02-24T14:01:21;18.70;;;16.60;;
12840;SDS011;6487;48.626;12.486;2023-02-24T14:04:03;26.07;;;16.43;;
12840;SDS011;6487;48.626;12.486;2023-02-24T14:06:43;23.03;;;16.23;;
12840;SDS011;6487;48.626;12.486;2023-02-24T14:09:14;18.77;;;16.30;;
12840;SDS011;6487;48.626;12.486;2023-02-24T14:11:49;20.50;;;15.60;;
12840;SDS011;6487;48.626;12.486;2023-02-24T14:14:21;21.67;;;17.67;;
12840;SDS011;6487;48.626;12.486;2023-02-24T14:16:50;18.20;;;15.70;;
12840;SDS011;6487;48.626;12.486;2023-02-24T14:19:20;22.80;;;16.43;;
12840;SDS011;6487;48.626;12.486;2023-02-24T14:21:52;21.47;;;16.53;;
12840;SDS011;6487;48.626;12.486;2023-02-24T14:24:22;24.03;;;17.73;;
12840;SDS011;6487;48.626;12.486;2023-02-24T14:26:54;24.87;;;15.80;;
12840;SDS011;6487;48.626;12.486;2023-02-24T14:29:26;18.13;;;15.27;;
12840;SDS011;6487;48.626;12.486;2023-02-24T14:31:57;20.43;;;16.33;;
12840;SDS011;6487;48.626;12.486;2023-02-24T14:34:28;25.07;;;16.73;;
12840;SDS011;6487;48.626;12.486;2023-02-24T14:36:59;19.17;;;15.37;;
12840;SDS011;6487;48.626;12.486;2023-02-24T14:39:30;21.33;;;16.57;;
12840;SDS011;6487;48.626;12.486;2023-02-24T14:42:08;19.97;;;16.37;;
12840;SDS011;6487;48.626;12.486;2023-02-24T14:44:41;22.30;;;16.30;;
12840;SDS011;6487;48.626;12.486;2023-02-24T14:47:12;19.30;;;16.13;;
12840;SDS011;6487;48.626;12.486;2023-02-24T14:49:51;21.03;;;14.87;;
12840;SDS011;6487;48.626;12.486;2023-02-24T14:52:30;22.50;;;16.50;;
12840;SDS011;6487;48.626;12.486;2023-02-24T14:55:03;22.27;;;17.17;;
12840;SDS011;6487;48.626;12.486;2023-02-24T14:57:34;21.03;;;15.80;;
12840;SDS011;6487;48.626;12.486;2023-02-24T15:00:11;18.23;;;15.97;;
12840;SDS011;6487;48.626;12.486;2023-02-24T15:02:47;22.03;;;15.87;;
12840;SDS011;6487;48.626;12.486;2023-02-24T15:05:26;23.40;;;16.97;;
12840;SDS011;6487;48.626;12.486;2023-02-24T15:07:54;22.57;;;16.33;;
12840;SDS011;6487;48.626;12.486;2023-02-24T15:10:24;20.33;;;15.90;;
12840;SDS011;6487;48.626;12.486;2023-02-24T15:12:56;21.77;;;15.43;;
12840;SDS011;6487;48.626;12.486;2023-02-24T15:15:28;21.13;;;15.70;;